Time;durP1;ratioP1;P1;durP2;ratioP2;P2;SDS_P1;SDS_P2;PMS_P1;PMS_P2;Temp;Humidity;BMP_temperature;BMP_pressure;BME280_temperature;BME280_humidity;BME280_pressure;Samples;Min_cycle;Max_cycle;Signal;HPM_P1;HPM_P2
2021/09/01 00:01:39;;;;;;;1.20;1.10;;;21.60;69.30;;;;;;5020486;28;20421;-41
2021/09/01 00:04:13;;;;;;;3.30;1.17;;;21.40;68.90;;;;;;5020191;28;20421;-50
2021/09/01 00:06:44;;;;;;;1.50;1.10;;;21.20;69.90;;;;;;5020356;28;20515;-47
2021/09/01 00:09:15;;;;;;;1.50;1.13;;;21.20;71.70;;;;;;5019567;28;20487;-44
2021/09/01 00:11:46;;;;;;;4.63;1.40;;;21.20;71.70;;;;;;5020460;28;20420;-48
2021/09/01 00:14:17;;;;;;;1.20;1.10;;;21.20;71.40;;;;;;5019792;28;20428;-46
2021/09/01 00:16:49;;;;;;;1.50;1.00;;;20.80;71.60;;;;;;5120577;28;20753;-45
2021/09/01 00:19:21;;;;;;;0.87;0.83;;;20.60;73.00;;;;;;5106950;27;20471;-43
2021/09/01 00:21:54;;;;;;;1.83;1.10;;;20.40;73.90;;;;;;5039925;28;20452;-42
2021/09/01 00:24:44;;;;;;;1.57;1.03;;;20.30;73.70;;;;;;5056028;28;20419;-38
2021/09/01 00:27:15;;;;;;;1.70;0.90;;;20.10;74.10;;;;;;5059671;28;20452;-41
2021/09/01 00:29:49;;;;;;;1.20;1.00;;;20.10;76.10;;;;;;5059417;28;20921;-44
2021/09/01 00:32:20;;;;;;;1.97;1.33;;;20.00;76.10;;;;;;5059320;28;20455;-49
2021/09/01 00:34:52;;;;;;;1.20;1.10;;;20.00;76.90;;;;;;5059209;28;20489;-41
2021/09/01 00:37:23;;;;;;;1.43;1.33;;;19.90;78.10;;;;;;5059530;28;20464;-47
2021/09/01 00:39:54;;;;;;;1.83;1.57;;;19.90;77.70;;;;;;5058851;28;20877;-44
2021/09/01 00:42:25;;;;;;;1.63;1.53;;;19.80;78.20;;;;;;5059565;28;20489;-44
2021/09/01 00:44:56;;;;;;;2.17;1.30;;;19.90;79.00;;;;;;5059318;27;20476;-44
2021/09/01 00:47:28;;;;;;;2.23;1.20;;;19.80;79.40;;;;;;5059437;28;20449;-47
2021/09/01 00:50:00;;;;;;;2.40;1.30;;;19.70;80.30;;;;;;5061371;28;20444;-48
2021/09/01 00:52:32;;;;;;;1.70;1.30;;;19.60;80.20;;;;;;5062574;28;20511;-46
2021/09/01 00:55:04;;;;;;;3.50;1.60;;;19.40;81.10;;;;;;5062230;28;20475;-43
2021/09/01 00:57:40;;;;;;;3.43;1.23;;;19.40;82.10;;;;;;5022709;28;20453;-43
2021/09/01 01:00:20;;;;;;;3.40;1.40;;;19.40;82.50;;;;;;5022902;28;20450;-46
2021/09/01 01:02:51;;;;;;;1.60;1.40;;;19.30;82.40;;;;;;5022917;28;20479;-45
2021/09/01 01:05:24;;;;;;;1.80;1.70;;;19.20;82.60;;;;;;5022770;28;20446;-46
2021/09/01 01:07:55;;;;;;;4.73;2.30;;;19.10;83.00;;;;;;5022611;28;20479;-43
2021/09/01 01:10:26;;;;;;;1.97;1.77;;;19.00;83.80;;;;;;5022335;28;20450;-45
2021/09/01 01:12:57;;;;;;;2.07;1.67;;;18.90;83.90;;;;;;5022548;28;20485;-45
2021/09/01 01:15:28;;;;;;;3.90;1.53;;;18.80;83.70;;;;;;5022523;28;20445;-43
2021/09/01 01:17:59;;;;;;;2.80;1.27;;;18.70;84.50;;;;;;5022727;28;20450;-43
2021/09/01 01:20:32;;;;;;;1.30;1.10;;;18.70;83.00;;;;;;5022588;28;20873;-42
2021/09/01 01:23:03;;;;;;;1.40;1.30;;;18.70;81.80;;;;;;5028240;28;20452;-45
2021/09/01 01:25:42;;;;;;;1.30;1.03;;;18.70;81.30;;;;;;5041905;28;20617;-47
2021/09/01 01:28:13;;;;;;;2.87;1.37;;;18.60;81.50;;;;;;5042010;28;20429;-42
2021/09/01 01:30:45;;;;;;;1.30;1.20;;;18.60;81.80;;;;;;5042628;28;20471;-47
2021/09/01 01:33:16;;;;;;;1.87;1.40;;;18.60;82.30;;;;;;5042404;28;20828;-44
2021/09/01 01:35:48;;;;;;;1.20;1.10;;;18.60;82.10;;;;;;5042036;28;20453;-47
2021/09/01 01:38:22;;;;;;;2.10;1.30;;;18.60;82.10;;;;;;5041783;28;20506;-48
2021/09/01 01:40:54;;;;;;;2.10;1.47;;;18.60;81.60;;;;;;5041812;28;20806;-44
2021/09/01 01:43:25;;;;;;;1.43;1.33;;;18.50;81.40;;;;;;5041842;28;20446;-40
2021/09/01 01:45:56;;;;;;;2.37;1.80;;;18.40;82.70;;;;;;5042206;28;20611;-47
2021/09/01 01:48:27;;;;;;;4.23;2.90;;;18.40;82.00;;;;;;5041976;28;20449;-50
2021/09/01 01:50:58;;;;;;;3.70;2.47;;;18.40;82.00;;;;;;5041788;28;20474;-46
2021/09/01 01:53:29;;;;;;;2.00;1.50;;;18.40;81.80;;;;;;5041145;28;20485;-40
2021/09/01 01:56:02;;;;;;;1.90;1.50;;;18.30;82.10;;;;;;5034431;28;20458;-46
2021/09/01 01:58:33;;;;;;;2.53;1.80;;;18.20;82.00;;;;;;5021877;28;20529;-46
2021/09/01 02:01:04;;;;;;;6.07;3.53;;;18.10;83.50;;;;;;5020869;28;20461;-41
2021/09/01 02:03:35;;;;;;;5.03;3.40;;;18.10;83.70;;;;;;5022049;28;20462;-45
2021/09/01 02:06:06;;;;;;;5.87;4.40;;;18.10;84.10;;;;;;5021605;28;20504;-41
2021/09/01 02:08:37;;;;;;;8.90;5.70;;;18.00;84.50;;;;;;5021592;28;20453;-41
2021/09/01 02:11:10;;;;;;;6.70;4.10;;;18.00;85.10;;;;;;5021384;28;20439;-41
2021/09/01 02:13:41;;;;;;;4.30;3.70;;;18.00;85.50;;;;;;5021299;28;20498;-45
2021/09/01 02:16:12;;;;;;;4.40;3.60;;;17.90;85.80;;;;;;5021425;28;20485;-40
2021/09/01 02:18:43;;;;;;;6.63;2.63;;;17.90;85.00;;;;;;5021486;28;20998;-41
2021/09/01 02:21:15;;;;;;;1.80;1.70;;;17.90;85.80;;;;;;5021611;28;20550;-44
2021/09/01 02:23:46;;;;;;;3.50;1.90;;;17.80;86.20;;;;;;5032937;28;20483;-44
2021/09/01 02:26:18;;;;;;;1.57;1.47;;;17.80;86.60;;;;;;5040986;28;20452;-46
2021/09/01 02:28:49;;;;;;;2.17;1.90;;;17.70;87.00;;;;;;5040982;28;20464;-41
2021/09/01 02:31:20;;;;;;;1.97;1.73;;;17.70;87.90;;;;;;5041356;28;20462;-42
2021/09/01 02:33:51;;;;;;;2.90;1.53;;;17.70;87.60;;;;;;5040980;28;20532;-45
2021/09/01 02:36:22;;;;;;;1.70;1.60;;;17.70;88.50;;;;;;5040996;28;20498;-43
2021/09/01 02:38:53;;;;;;;2.77;1.80;;;17.60;89.60;;;;;;5040158;28;20464;-44
2021/09/01 02:41:26;;;;;;;2.43;2.10;;;17.50;90.00;;;;;;5041157;28;20444;-45
2021/09/01 02:43:57;;;;;;;2.43;1.90;;;17.50;90.30;;;;;;5041020;28;20446;-47
2021/09/01 02:46:28;;;;;;;3.10;2.40;;;17.50;90.80;;;;;;5041150;28;20473;-50
2021/09/01 02:48:59;;;;;;;2.97;2.00;;;17.50;91.00;;;;;;5040726;28;20532;-44
2021/09/01 02:51:30;;;;;;;2.70;2.00;;;17.40;91.80;;;;;;5041186;28;20479;-50
2021/09/01 02:54:01;;;;;;;4.30;1.83;;;17.30;91.80;;;;;;5039981;28;20548;-47
2021/09/01 02:56:34;;;;;;;3.27;2.10;;;17.30;91.80;;;;;;5029555;28;20446;-48
2021/09/01 02:59:05;;;;;;;2.93;2.07;;;17.30;92.20;;;;;;5020712;28;20423;-43
2021/09/01 03:01:36;;;;;;;2.43;2.20;;;17.20;92.60;;;;;;5021124;28;20953;-42
2021/09/01 03:04:07;;;;;;;2.40;2.13;;;17.20;93.00;;;;;;5020924;28;20944;-40
2021/09/01 03:06:38;;;;;;;2.57;2.03;;;17.20;93.00;;;;;;5020931;28;20852;-41
2021/09/01 03:09:09;;;;;;;4.50;2.77;;;17.20;93.30;;;;;;5020059;28;20461;-41
2021/09/01 03:11:42;;;;;;;2.77;2.57;;;17.10;93.50;;;;;;5020804;28;20459;-40
2021/09/01 03:14:13;;;;;;;2.93;2.53;;;17.10;93.70;;;;;;5020526;28;21238;-40
2021/09/01 03:16:44;;;;;;;3.60;2.07;;;17.00;94.00;;;;;;5020879;28;20451;-47
2021/09/01 03:19:15;;;;;;;2.20;2.00;;;17.00;94.40;;;;;;5020724;28;20454;-42
2021/09/01 03:22:05;;;;;;;4.33;2.23;;;16.80;94.80;;;;;;5020726;28;20488;-41
2021/09/01 03:24:36;;;;;;;4.90;1.90;;;16.70;95.20;;;;;;5038416;28;20961;-40
2021/09/01 03:27:09;;;;;;;3.20;2.10;;;16.70;95.80;;;;;;5040499;28;20578;-41
2021/09/01 03:29:40;;;;;;;1.83;1.73;;;16.50;96.50;;;;;;5040701;28;20461;-41
2021/09/01 03:32:11;;;;;;;2.10;2.00;;;16.40;97.30;;;;;;5040809;28;20464;-40
2021/09/01 03:34:42;;;;;;;9.23;3.13;;;16.30;97.90;;;;;;5040123;28;20521;-41
2021/09/01 03:37:13;;;;;;;2.70;2.10;;;16.30;98.10;;;;;;5040060;28;20453;-43
2021/09/01 03:39:44;;;;;;;2.20;1.87;;;16.20;98.70;;;;;;5039786;28;20490;-40
2021/09/01 03:42:16;;;;;;;2.17;1.97;;;16.10;99.40;;;;;;5040202;28;20786;-40
2021/09/01 03:44:47;;;;;;;4.40;1.93;;;16.00;99.90;;;;;;5040370;28;20461;-40
2021/09/01 03:47:18;;;;;;;2.60;2.20;;;16.00;99.90;;;;;;5040300;28;20449;-41
2021/09/01 03:49:49;;;;;;;3.30;2.50;;;15.90;99.90;;;;;;5040068;28;20484;-45
2021/09/01 03:52:20;;;;;;;3.70;2.17;;;15.80;99.90;;;;;;5040300;28;20480;-44
2021/09/01 03:54:51;;;;;;;2.70;2.00;;;15.70;99.90;;;;;;5039257;28;20493;-40
2021/09/01 03:57:24;;;;;;;3.20;2.03;;;15.60;99.90;;;;;;5021857;28;20446;-40
2021/09/01 03:59:55;;;;;;;3.80;2.80;;;15.60;99.90;;;;;;5020263;28;20443;-40
2021/09/01 04:02:26;;;;;;;4.23;3.10;;;15.50;99.90;;;;;;5020316;28;20458;-39
2021/09/01 04:04:57;;;;;;;3.40;2.50;;;15.50;99.90;;;;;;5020302;28;20481;-39
2021/09/01 04:07:29;;;;;;;5.50;2.90;;;15.40;99.90;;;;;;5020063;28;20880;-39
2021/09/01 04:10:00;;;;;;;3.27;2.17;;;15.40;99.90;;;;;;5019683;28;20447;-39
2021/09/01 04:12:33;;;;;;;4.03;3.33;;;15.30;99.90;;;;;;5019849;28;20434;-39
2021/09/01 04:15:04;;;;;;;3.57;2.50;;;15.30;99.90;;;;;;5020373;28;20537;-40
2021/09/01 04:17:35;;;;;;;4.20;2.50;;;15.30;99.90;;;;;;5019481;28;20450;-39
2021/09/01 04:20:07;;;;;;;4.23;2.70;;;15.20;99.90;;;;;;5019866;28;20454;-39
2021/09/01 04:22:39;;;;;;;3.13;2.33;;;15.10;99.90;;;;;;5019442;28;20481;-38
2021/09/01 04:25:15;;;;;;;2.77;2.57;;;15.10;99.90;;;;;;5022077;28;20450;-39
2021/09/01 04:27:47;;;;;;;2.50;2.03;;;15.10;99.90;;;;;;5023003;28;20522;-39
2021/09/01 04:30:18;;;;;;;2.60;2.40;;;15.00;99.90;;;;;;5023507;28;20439;-38
2021/09/01 04:32:49;;;;;;;2.87;2.47;;;14.90;99.90;;;;;;5023082;28;20462;-39
2021/09/01 04:35:20;;;;;;;6.60;2.53;;;14.90;99.90;;;;;;5023208;28;20493;-44
2021/09/01 04:37:51;;;;;;;2.40;2.20;;;14.80;99.90;;;;;;5022801;28;20527;-45
2021/09/01 04:40:22;;;;;;;3.70;2.37;;;14.70;99.90;;;;;;5023088;28;20803;-40
2021/09/01 04:42:55;;;;;;;4.20;2.20;;;14.70;99.90;;;;;;5022980;28;20442;-46
2021/09/01 04:45:26;;;;;;;3.23;2.57;;;14.70;99.90;;;;;;5023470;28;20456;-42
2021/09/01 04:47:57;;;;;;;5.40;2.23;;;14.70;99.90;;;;;;5023008;28;20499;-40
2021/09/01 04:50:28;;;;;;;2.37;2.17;;;14.70;99.90;;;;;;5023274;28;20481;-45
2021/09/01 04:52:59;;;;;;;2.80;2.40;;;14.60;99.90;;;;;;5022622;28;20505;-41
2021/09/01 04:55:30;;;;;;;3.60;2.47;;;14.50;99.90;;;;;;5022704;28;20522;-41
2021/09/01 04:58:03;;;;;;;3.30;2.60;;;14.50;99.90;;;;;;5022508;28;20442;-43
2021/09/01 05:00:34;;;;;;;2.53;2.33;;;14.40;99.90;;;;;;5023424;28;20442;-39
2021/09/01 05:03:05;;;;;;;3.50;2.77;;;14.30;99.90;;;;;;5022834;28;20475;-41
2021/09/01 05:05:36;;;;;;;2.57;2.23;;;14.30;99.90;;;;;;5023165;28;20461;-41
2021/09/01 05:08:07;;;;;;;4.37;2.27;;;14.20;99.90;;;;;;5022420;28;20495;-40
2021/09/01 05:10:38;;;;;;;2.87;2.57;;;14.20;99.90;;;;;;5022738;28;20446;-41
2021/09/01 05:13:11;;;;;;;3.40;2.67;;;14.10;99.90;;;;;;5022929;28;20441;-40
2021/09/01 05:15:42;;;;;;;3.60;2.63;;;14.10;99.90;;;;;;5023352;28;20477;-41
2021/09/01 05:18:13;;;;;;;3.70;3.00;;;14.10;99.90;;;;;;5022782;28;20499;-43
2021/09/01 05:20:44;;;;;;;3.50;2.50;;;14.10;99.90;;;;;;5023083;28;20450;-39
2021/09/01 05:23:19;;;;;;;4.80;2.60;;;14.10;99.90;;;;;;5029808;28;20489;-40
2021/09/01 05:25:58;;;;;;;2.33;2.13;;;14.00;99.90;;;;;;5042159;28;20449;-41
2021/09/01 05:28:32;;;;;;;5.00;2.70;;;14.00;99.90;;;;;;5041879;28;20441;-39
2021/09/01 05:31:05;;;;;;;3.93;2.60;;;14.00;99.90;;;;;;5042871;28;20506;-44
2021/09/01 05:33:37;;;;;;;3.87;2.63;;;14.00;99.90;;;;;;5042448;28;20906;-45
2021/09/01 05:36:08;;;;;;;3.83;2.10;;;13.90;99.90;;;;;;5042082;28;20524;-41
2021/09/01 05:38:39;;;;;;;2.83;2.63;;;13.90;99.90;;;;;;5041692;28;20449;-42
2021/09/01 05:41:10;;;;;;;3.60;2.50;;;13.80;99.90;;;;;;5042072;28;20488;-47
2021/09/01 05:43:44;;;;;;;4.30;2.00;;;13.90;99.90;;;;;;5042136;28;20644;-41
2021/09/01 05:46:17;;;;;;;4.57;2.30;;;13.90;99.90;;;;;;5042704;28;20434;-40
2021/09/01 05:48:48;;;;;;;3.17;2.13;;;14.00;99.90;;;;;;5042106;28;20449;-41
2021/09/01 05:51:20;;;;;;;2.10;1.90;;;14.00;99.90;;;;;;5042374;28;20826;-45
2021/09/01 05:53:51;;;;;;;3.60;2.53;;;13.90;99.90;;;;;;5041512;28;20479;-39
2021/09/01 05:56:29;;;;;;;1.77;1.67;;;13.90;99.90;;;;;;5032343;28;20509;-46
2021/09/01 05:59:09;;;;;;;3.37;2.27;;;13.80;99.90;;;;;;5021590;28;20470;-41
2021/09/01 06:01:46;;;;;;;4.63;2.27;;;13.80;99.90;;;;;;5022422;28;20822;-45
2021/09/01 06:04:21;;;;;;;3.37;2.53;;;13.80;99.90;;;;;;5022106;28;20459;-46
2021/09/01 06:06:54;;;;;;;3.03;2.40;;;13.80;99.90;;;;;;5022158;28;20589;-42
2021/09/01 06:09:25;;;;;;;3.80;2.07;;;13.90;99.90;;;;;;5021106;28;20470;-42
2021/09/01 06:12:02;;;;;;;3.57;2.43;;;13.90;99.90;;;;;;5021865;28;20474;-42
2021/09/01 06:14:35;;;;;;;2.90;2.10;;;13.80;99.90;;;;;;5021309;28;20454;-42
2021/09/01 06:17:06;;;;;;;4.47;1.80;;;13.80;99.90;;;;;;5021753;28;20474;-40
2021/09/01 06:19:37;;;;;;;3.57;2.30;;;13.70;99.90;;;;;;5021887;28;20470;-39
2021/09/01 06:22:09;;;;;;;3.63;2.03;;;13.70;99.90;;;;;;5021613;28;20514;-42
2021/09/01 06:24:40;;;;;;;4.30;2.50;;;13.60;99.90;;;;;;5040033;28;20488;-44
2021/09/01 06:27:11;;;;;;;2.40;1.90;;;13.60;99.90;;;;;;5041489;28;20541;-39
2021/09/01 06:29:43;;;;;;;3.07;2.27;;;13.50;99.90;;;;;;5040974;28;20477;-45
2021/09/01 06:32:14;;;;;;;3.17;2.87;;;13.50;99.90;;;;;;5041388;28;20430;-39
2021/09/01 06:34:45;;;;;;;2.40;2.20;;;13.40;99.90;;;;;;5041684;28;20430;-42
2021/09/01 06:37:16;;;;;;;2.67;2.00;;;13.40;99.90;;;;;;5041303;28;20512;-46
2021/09/01 06:39:48;;;;;;;2.67;2.20;;;13.30;99.90;;;;;;5040131;28;20480;-40
2021/09/01 06:42:20;;;;;;;2.57;2.20;;;13.30;99.90;;;;;;5041165;28;20460;-45
2021/09/01 06:44:52;;;;;;;3.80;2.33;;;13.30;99.90;;;;;;5040936;28;20545;-39
2021/09/01 06:47:23;;;;;;;2.47;2.23;;;13.30;99.90;;;;;;5040645;28;20474;-42
2021/09/01 06:49:54;;;;;;;5.00;2.93;;;13.40;99.90;;;;;;5041038;28;20441;-41
2021/09/01 06:52:25;;;;;;;4.27;2.30;;;13.40;99.90;;;;;;5041297;28;20522;-42
2021/09/01 06:54:56;;;;;;;3.73;2.20;;;13.40;99.90;;;;;;5040420;28;20474;-41
2021/09/01 06:57:27;;;;;;;3.73;2.27;;;13.40;99.90;;;;;;5022140;28;20947;-41
2021/09/01 07:00:00;;;;;;;2.30;2.10;;;13.40;99.90;;;;;;5020928;28;20587;-40
2021/09/01 07:02:31;;;;;;;4.00;2.90;;;13.40;99.90;;;;;;5021584;28;20503;-41
2021/09/01 07:05:03;;;;;;;4.27;2.50;;;13.40;99.90;;;;;;5021259;28;20546;-44
2021/09/01 07:07:40;;;;;;;4.57;2.47;;;13.40;99.90;;;;;;5020643;28;20477;-40
2021/09/01 07:10:12;;;;;;;3.57;2.80;;;13.40;99.90;;;;;;5020618;28;20478;-43
2021/09/01 07:12:43;;;;;;;4.17;2.83;;;13.40;99.90;;;;;;5020507;28;20450;-40
2021/09/01 07:15:16;;;;;;;4.07;2.30;;;13.40;99.90;;;;;;5020750;28;20447;-41
2021/09/01 07:17:47;;;;;;;4.80;2.77;;;13.30;99.90;;;;;;5021048;28;20568;-40
2021/09/01 07:20:21;;;;;;;3.30;2.20;;;13.30;99.90;;;;;;5021002;28;20504;-40
2021/09/01 07:22:52;;;;;;;4.97;2.43;;;13.30;99.90;;;;;;5024515;28;20542;-39
2021/09/01 07:25:23;;;;;;;5.50;2.30;;;13.30;99.90;;;;;;5040060;28;20446;-45
2021/09/01 07:27:54;;;;;;;3.50;2.20;;;13.20;99.90;;;;;;5039929;28;20465;-41
2021/09/01 07:30:27;;;;;;;3.73;2.70;;;13.30;99.90;;;;;;5040136;28;20473;-42
2021/09/01 07:32:58;;;;;;;3.30;2.47;;;13.20;99.90;;;;;;5040476;28;20496;-39
2021/09/01 07:35:29;;;;;;;4.47;2.50;;;13.20;99.90;;;;;;5040675;28;20434;-38
2021/09/01 07:38:00;;;;;;;3.03;2.10;;;13.20;99.90;;;;;;5040046;28;20522;-39
2021/09/01 07:40:31;;;;;;;3.37;2.30;;;13.20;99.90;;;;;;5039886;28;20472;-39
2021/09/01 07:43:02;;;;;;;3.33;2.40;;;13.20;99.90;;;;;;5039980;28;20523;-39
2021/09/01 07:45:34;;;;;;;5.97;1.87;;;13.20;99.90;;;;;;5040292;28;20445;-39
2021/09/01 07:48:06;;;;;;;3.77;2.67;;;13.20;99.90;;;;;;5040436;28;20451;-39
2021/09/01 07:50:37;;;;;;;4.13;2.80;;;13.20;99.90;;;;;;5039890;28;20520;-38
2021/09/01 07:53:08;;;;;;;2.73;2.10;;;13.20;99.90;;;;;;5039744;28;20545;-38
2021/09/01 07:55:39;;;;;;;5.50;2.87;;;13.10;99.90;;;;;;5035884;28;20447;-38
2021/09/01 07:58:11;;;;;;;4.87;2.90;;;13.10;99.90;;;;;;5019785;28;20446;-40
2021/09/01 08:00:44;;;;;;;3.47;2.33;;;13.00;99.90;;;;;;5019984;28;20556;-37
2021/09/01 08:03:15;;;;;;;2.57;2.20;;;13.00;99.90;;;;;;5020215;28;20439;-37
2021/09/01 08:05:46;;;;;;;2.93;2.43;;;13.00;99.90;;;;;;5020132;28;20450;-38
2021/09/01 08:08:17;;;;;;;4.00;2.50;;;13.00;99.90;;;;;;5019687;28;20469;-38
2021/09/01 08:10:48;;;;;;;3.10;2.60;;;12.90;99.90;;;;;;5019633;28;20450;-38
2021/09/01 08:13:19;;;;;;;4.83;2.70;;;12.90;99.90;;;;;;5019690;28;20485;-38
2021/09/01 08:15:52;;;;;;;3.90;2.53;;;12.90;99.90;;;;;;5019921;28;20445;-37
2021/09/01 08:18:23;;;;;;;3.63;2.67;;;12.90;99.90;;;;;;5020169;28;20923;-38
2021/09/01 08:20:54;;;;;;;2.60;2.33;;;12.80;99.90;;;;;;5019771;28;20517;-38
2021/09/01 08:23:25;;;;;;;4.30;2.77;;;12.80;99.90;;;;;;5028125;28;20537;-37
2021/09/01 08:25:56;;;;;;;7.20;2.60;;;12.80;99.90;;;;;;5039122;28;20453;-38
2021/09/01 08:28:27;;;;;;;3.80;2.70;;;12.70;99.90;;;;;;5039153;28;20457;-38
2021/09/01 08:30:59;;;;;;;3.60;2.60;;;12.70;99.90;;;;;;5039753;28;21138;-37
2021/09/01 08:33:31;;;;;;;5.13;3.30;;;12.60;99.90;;;;;;5038527;28;20501;-37
2021/09/01 08:36:02;;;;;;;4.27;2.73;;;12.60;99.90;;;;;;5039676;28;20454;-38
2021/09/01 08:38:33;;;;;;;6.10;3.00;;;12.60;99.90;;;;;;5039236;28;20481;-38
2021/09/01 08:41:04;;;;;;;4.20;2.43;;;12.60;99.90;;;;;;5038999;28;20533;-37
2021/09/01 08:43:35;;;;;;;3.27;2.40;;;12.50;99.90;;;;;;5039205;28;20831;-38
2021/09/01 08:46:07;;;;;;;4.43;3.10;;;12.50;99.90;;;;;;5039425;28;20437;-37
2021/09/01 08:48:41;;;;;;;9.50;3.40;;;12.50;99.90;;;;;;5039657;28;20516;-37
2021/09/01 08:51:12;;;;;;;4.57;2.67;;;12.50;99.90;;;;;;5039146;28;20503;-37
2021/09/01 08:53:44;;;;;;;3.50;2.77;;;12.40;99.90;;;;;;5039013;28;20453;-38
2021/09/01 08:56:15;;;;;;;3.90;3.07;;;12.40;99.90;;;;;;5030446;28;20520;-38
2021/09/01 08:58:46;;;;;;;4.37;3.07;;;12.40;99.90;;;;;;5019010;28;20458;-37
2021/09/01 09:01:45;;;;;;;6.57;2.83;;;12.40;99.90;;;;;;5019305;28;20456;-37
2021/09/01 09:04:20;;;;;;;5.63;2.83;;;12.30;99.90;;;;;;5019468;28;20434;-36
2021/09/01 09:06:52;;;;;;;3.90;2.97;;;12.40;99.90;;;;;;5019644;28;20442;-37
2021/09/01 09:09:24;;;;;;;4.33;3.40;;;12.40;99.90;;;;;;5018686;28;20799;-36
2021/09/01 09:11:56;;;;;;;4.10;2.87;;;12.40;99.90;;;;;;5022669;28;20454;-37
2021/09/01 09:14:28;;;;;;;5.20;2.77;;;12.40;99.90;;;;;;5022163;28;20499;-35
2021/09/01 09:17:07;;;;;;;4.10;2.70;;;12.40;99.90;;;;;;5022747;28;20592;-37
2021/09/01 09:20:02;;;;;;;5.60;4.17;;;12.40;99.90;;;;;;5022506;28;20517;-36
2021/09/01 09:22:37;;;;;;;4.50;3.50;;;12.30;99.90;;;;;;5022671;28;20536;-35
2021/09/01 09:25:14;;;;;;;3.40;2.87;;;12.40;99.90;;;;;;5042422;28;20437;-37
2021/09/01 09:27:48;;;;;;;5.57;3.40;;;12.40;99.90;;;;;;5042064;28;20523;-38
2021/09/01 09:30:39;;;;;;;7.05;3.35;;;12.30;99.90;;;;;;5042136;28;20449;-38
2021/09/01 09:33:14;;;;;;;4.20;2.97;;;12.30;99.90;;;;;;5042199;28;20211;-37
2021/09/01 09:36:00;;;;;;;4.87;3.10;;;12.30;99.90;;;;;;5042219;28;20560;-37
2021/09/01 09:38:37;;;;;;;3.87;3.47;;;12.30;99.90;;;;;;5041574;28;20520;-37
2021/09/01 09:41:09;;;;;;;4.60;3.23;;;12.30;99.90;;;;;;5041703;28;20748;-39
2021/09/01 09:43:40;;;;;;;5.57;2.97;;;12.20;99.90;;;;;;5041860;28;20490;-37
2021/09/01 09:46:12;;;;;;;5.17;2.80;;;12.20;99.90;;;;;;5042209;28;20456;-37
2021/09/01 09:48:46;;;;;;;4.13;2.57;;;12.20;99.90;;;;;;5041875;28;20453;-37
2021/09/01 09:51:18;;;;;;;3.53;2.30;;;12.10;99.90;;;;;;5041940;28;20449;-37
2021/09/01 09:53:50;;;;;;;5.30;2.67;;;12.10;99.90;;;;;;5041552;28;20816;-38
2021/09/01 09:56:25;;;;;;;5.33;3.00;;;12.00;99.90;;;;;;5032313;28;20472;-37
2021/09/01 09:58:57;;;;;;;3.10;2.53;;;12.00;99.90;;;;;;5021521;28;20504;-37
2021/09/01 10:01:28;;;;;;;5.10;2.80;;;11.90;99.90;;;;;;5022190;28;20609;-38
2021/09/01 10:04:02;;;;;;;8.23;3.37;;;11.90;99.90;;;;;;5021813;28;20490;-38
2021/09/01 10:06:33;;;;;;;5.00;2.50;;;11.90;99.90;;;;;;5021935;28;20474;-38
2021/09/01 10:09:06;;;;;;;5.00;3.50;;;11.90;99.90;;;;;;5021085;28;20545;-38
2021/09/01 10:11:40;;;;;;;4.00;3.33;;;11.80;99.90;;;;;;5021786;28;20446;-37
2021/09/01 10:14:16;;;;;;;4.50;2.57;;;11.90;99.90;;;;;;5021204;28;20457;-38
2021/09/01 10:16:52;;;;;;;4.30;2.93;;;11.80;99.90;;;;;;5022067;28;20465;-39
2021/09/01 10:19:28;;;;;;;2.93;2.40;;;11.80;99.90;;;;;;5021466;28;20491;-36
2021/09/01 10:22:02;;;;;;;6.33;2.87;;;11.70;99.90;;;;;;5020182;28;20517;-36
2021/09/01 10:24:34;;;;;;;3.53;3.13;;;11.70;99.90;;;;;;5038551;28;20580;-38
2021/09/01 10:27:11;;;;;;;5.83;2.93;;;11.70;99.90;;;;;;5041428;28;20461;-38
2021/09/01 10:29:48;;;;;;;8.70;3.23;;;11.70;99.90;;;;;;5039681;28;20444;-39
2021/09/01 10:32:25;;;;;;;4.60;3.07;;;11.70;99.90;;;;;;5041327;28;20486;-38
2021/09/01 10:35:32;;;;;;;3.40;2.83;;;11.60;99.90;;;;;;5041458;28;20503;-37
2021/09/01 10:38:07;;;;;;;5.10;3.30;;;11.50;99.90;;;;;;5040984;28;20481;-38
2021/09/01 10:41:05;;;;;;;4.80;3.00;;;11.50;99.90;;;;;;5041016;28;20445;-38
2021/09/01 10:43:36;;;;;;;5.50;2.83;;;11.50;99.90;;;;;;5040861;28;20510;-37
2021/09/01 10:46:07;;;;;;;4.32;2.90;;;11.40;99.90;;;;;;5040915;28;20480;-38
2021/09/01 10:49:01;;;;;;;5.73;2.83;;;11.40;99.90;;;;;;5040847;28;20266;-38
2021/09/01 10:51:34;;;;;;;8.90;3.40;;;11.30;99.90;;;;;;5054277;28;20481;-38
2021/09/01 10:54:30;;;;;;;5.20;3.13;;;11.30;99.90;;;;;;5040163;28;20206;-39
2021/09/01 10:57:02;;;;;;;4.50;3.13;;;11.20;99.90;;;;;;5026065;28;20461;-38
2021/09/01 10:59:38;;;;;;;4.33;2.90;;;11.20;99.90;;;;;;5020728;28;20482;-37
2021/09/01 11:02:10;;;;;;;4.10;3.00;;;11.30;99.90;;;;;;5021162;28;20935;-38
2021/09/01 11:04:49;;;;;;;6.10;3.80;;;11.20;99.90;;;;;;5021190;28;20451;-38
2021/09/01 11:07:25;;;;;;;5.13;3.50;;;11.20;99.90;;;;;;5020910;28;20442;-37
2021/09/01 11:09:58;;;;;;;6.38;3.70;;;11.20;99.90;;;;;;5020178;28;20211;-37
2021/09/01 11:12:30;;;;;;;4.93;3.28;;;11.20;99.90;;;;;;5020679;28;20214;-38
2021/09/01 11:15:01;;;;;;;5.93;3.50;;;11.10;99.90;;;;;;5020749;28;20195;-37
2021/09/01 11:17:33;;;;;;;7.75;4.00;;;11.10;99.90;;;;;;5021334;28;20196;-37
2021/09/01 11:20:06;;;;;;;4.75;3.38;;;11.10;99.90;;;;;;5020827;28;20584;-38
2021/09/01 11:22:40;;;;;;;5.43;2.75;;;11.10;99.90;;;;;;5022306;28;20235;-37
2021/09/01 11:25:12;;;;;;;5.13;3.20;;;11.00;99.90;;;;;;5040129;28;20236;-37
2021/09/01 11:27:50;;;;;;;7.57;3.65;;;10.90;99.90;;;;;;5040028;28;20206;-37
2021/09/01 11:30:21;;;;;;;8.10;3.30;;;10.90;99.90;;;;;;5040426;28;20222;-37
2021/09/01 11:32:56;;;;;;;6.28;3.55;;;10.90;99.90;;;;;;5039958;28;20452;-38
2021/09/01 11:35:28;;;;;;;5.40;3.53;;;10.90;99.90;;;;;;5040236;28;20237;-38
2021/09/01 11:38:02;;;;;;;5.03;3.40;;;10.90;99.90;;;;;;5039990;28;20569;-37
2021/09/01 11:40:34;;;;;;;3.05;2.58;;;10.90;99.90;;;;;;5039957;28;20229;-37
2021/09/01 11:43:10;;;;;;;4.80;3.10;;;10.80;99.90;;;;;;5039750;28;20207;-38
2021/09/01 11:45:46;;;;;;;5.32;3.15;;;10.80;99.90;;;;;;5040123;28;20262;-38
2021/09/01 11:48:17;;;;;;;6.03;3.20;;;10.70;99.90;;;;;;5040576;28;20225;-38
2021/09/01 11:50:50;;;;;;;5.22;3.33;;;10.70;99.90;;;;;;5040275;28;20445;-38
2021/09/01 11:53:43;;;;;;;5.35;3.70;;;10.70;99.90;;;;;;5039582;28;20210;-39
2021/09/01 11:56:14;;;;;;;5.45;3.05;;;10.70;99.90;;;;;;5031345;28;20606;-38
2021/09/01 11:58:58;;;;;;;4.32;3.40;;;10.60;99.90;;;;;;5019770;28;20227;-38
2021/09/01 12:01:30;;;;;;;4.30;3.30;;;10.50;99.90;;;;;;5020281;28;20291;-38
2021/09/01 12:04:01;;;;;;;5.78;3.88;;;10.50;99.90;;;;;;5019878;28;20218;-40
2021/09/01 12:06:55;;;;;;;5.75;3.70;;;10.40;99.90;;;;;;5020394;28;20208;-37
2021/09/01 12:09:29;;;;;;;4.50;3.50;;;10.30;99.90;;;;;;5019418;28;20221;-37
2021/09/01 12:12:01;;;;;;;5.35;3.53;;;10.30;99.90;;;;;;5019849;28;20203;-37
2021/09/01 12:14:34;;;;;;;7.07;3.78;;;10.40;99.90;;;;;;5019308;28;20283;-37
2021/09/01 12:17:22;;;;;;;6.00;4.10;;;10.30;99.90;;;;;;5019923;28;20211;-37
2021/09/01 12:19:57;;;;;;;5.35;3.90;;;10.30;99.90;;;;;;5019659;28;20246;-38
2021/09/01 12:22:34;;;;;;;5.03;3.20;;;10.20;99.90;;;;;;5020424;28;20230;-37
2021/09/01 12:25:08;;;;;;;4.80;3.45;;;10.20;99.90;;;;;;5039599;28;20211;-37
2021/09/01 12:27:41;;;;;;;6.97;3.70;;;10.20;99.90;;;;;;5039447;28;20221;-37
2021/09/01 12:30:13;;;;;;;6.40;4.05;;;10.20;99.90;;;;;;5039903;28;20233;-37
2021/09/01 12:32:44;;;;;;;8.02;3.80;;;10.20;99.90;;;;;;5039316;28;20206;-38
2021/09/01 12:35:18;;;;;;;6.72;3.40;;;10.10;99.90;;;;;;5039871;28;20206;-37
2021/09/01 12:37:57;;;;;;;6.90;3.50;;;10.10;99.90;;;;;;5039459;28;20229;-37
2021/09/01 12:40:35;;;;;;;4.78;3.40;;;10.10;99.90;;;;;;5039121;28;20313;-37
2021/09/01 12:43:08;;;;;;;6.72;3.83;;;10.20;99.90;;;;;;5039226;28;20288;-37
2021/09/01 12:45:41;;;;;;;5.68;4.13;;;10.20;99.90;;;;;;5041122;28;20228;-37
2021/09/01 12:48:16;;;;;;;5.65;3.90;;;10.10;99.90;;;;;;5043586;28;20187;-36
2021/09/01 12:50:48;;;;;;;6.10;4.03;;;10.00;99.90;;;;;;5042942;28;20214;-37
2021/09/01 12:53:22;;;;;;;6.90;3.92;;;10.00;99.90;;;;;;5042739;28;20282;-37
2021/09/01 12:56:01;;;;;;;7.60;4.03;;;9.80;99.90;;;;;;5036833;28;20271;-37
2021/09/01 12:58:32;;;;;;;5.78;3.97;;;9.80;99.90;;;;;;5022868;28;20207;-37
2021/09/01 13:01:03;;;;;;;6.32;4.55;;;9.80;99.90;;;;;;5023212;28;20304;-36
2021/09/01 13:03:34;;;;;;;9.07;4.10;;;9.90;99.90;;;;;;5023290;28;20217;-37
2021/09/01 13:06:06;;;;;;;4.97;3.80;;;9.90;99.90;;;;;;5022983;28;20276;-37
2021/09/01 13:08:37;;;;;;;9.35;4.47;;;9.90;99.90;;;;;;5022788;28;20218;-36
2021/09/01 13:11:09;;;;;;;7.53;4.35;;;9.90;99.90;;;;;;5022713;28;20338;-36
2021/09/01 13:13:40;;;;;;;6.57;4.00;;;9.80;99.90;;;;;;5022373;28;20260;-36
2021/09/01 13:16:11;;;;;;;5.53;3.60;;;9.70;99.90;;;;;;5022914;28;20195;-37
2021/09/01 13:18:42;;;;;;;8.95;3.97;;;9.80;99.90;;;;;;5023220;28;20192;-36